sensor_id;sensor_type;location;lat;lon;timestamp;P1;durP1;ratioP1;P2;durP2;ratioP2
18505;SDS011;9382;53.242;10.438;2022-07-06T00:01:40;3.60;;;2.00;;
18505;SDS011;9382;53.242;10.438;2022-07-06T00:04:07;4.43;;;2.23;;
18505;SDS011;9382;53.242;10.438;2022-07-06T00:06:34;5.73;;;2.50;;
18505;SDS011;9382;53.242;10.438;2022-07-06T00:09:01;6.70;;;2.20;;
18505;SDS011;9382;53.242;10.438;2022-07-06T00:11:31;5.07;;;2.20;;
18505;SDS011;9382;53.242;10.438;2022-07-06T00:13:58;4.30;;;2.23;;
18505;SDS011;9382;53.242;10.438;2022-07-06T00:16:25;7.17;;;2.20;;
18505;SDS011;9382;53.242;10.438;2022-07-06T00:18:53;3.63;;;2.00;;
18505;SDS011;9382;53.242;10.438;2022-07-06T00:21:19;7.53;;;2.03;;
18505;SDS011;9382;53.242;10.438;2022-07-06T00:23:46;4.23;;;1.97;;
18505;SDS011;9382;53.242;10.438;2022-07-06T00:26:13;5.23;;;2.13;;
18505;SDS011;9382;53.242;10.438;2022-07-06T00:28:40;4.90;;;2.07;;
18505;SDS011;9382;53.242;10.438;2022-07-06T00:31:06;3.57;;;2.03;;
18505;SDS011;9382;53.242;10.438;2022-07-06T00:33:33;8.00;;;2.43;;
18505;SDS011;9382;53.242;10.438;2022-07-06T00:36:01;5.07;;;2.33;;
18505;SDS011;9382;53.242;10.438;2022-07-06T00:38:28;6.00;;;2.20;;
18505;SDS011;9382;53.242;10.438;2022-07-06T00:40:55;5.43;;;2.10;;
18505;SDS011;9382;53.242;10.438;2022-07-06T00:43:21;5.27;;;2.07;;
18505;SDS011;9382;53.242;10.438;2022-07-06T00:45:48;3.30;;;2.13;;
18505;SDS011;9382;53.242;10.438;2022-07-06T00:48:15;4.60;;;2.43;;
18505;SDS011;9382;53.242;10.438;2022-07-06T00:50:41;5.10;;;2.30;;
18505;SDS011;9382;53.242;10.438;2022-07-06T00:53:10;8.67;;;2.60;;
18505;SDS011;9382;53.242;10.438;2022-07-06T00:55:37;5.07;;;2.40;;
18505;SDS011;9382;53.242;10.438;2022-07-06T00:58:05;3.97;;;2.13;;
18505;SDS011;9382;53.242;10.438;2022-07-06T01:00:33;4.90;;;2.40;;
18505;SDS011;9382;53.242;10.438;2022-07-06T01:03:00;9.20;;;2.23;;
18505;SDS011;9382;53.242;10.438;2022-07-06T01:05:27;4.47;;;2.30;;
18505;SDS011;9382;53.242;10.438;2022-07-06T01:07:54;4.57;;;2.50;;
18505;SDS011;9382;53.242;10.438;2022-07-06T01:10:23;6.13;;;2.33;;
18505;SDS011;9382;53.242;10.438;2022-07-06T01:12:49;3.23;;;2.30;;
18505;SDS011;9382;53.242;10.438;2022-07-06T01:15:17;4.23;;;2.07;;
18505;SDS011;9382;53.242;10.438;2022-07-06T01:17:45;6.27;;;2.47;;
18505;SDS011;9382;53.242;10.438;2022-07-06T01:20:14;6.97;;;2.20;;
18505;SDS011;9382;53.242;10.438;2022-07-06T01:22:41;3.83;;;2.20;;
18505;SDS011;9382;53.242;10.438;2022-07-06T01:25:09;4.67;;;2.10;;
18505;SDS011;9382;53.242;10.438;2022-07-06T01:27:36;6.13;;;2.27;;
18505;SDS011;9382;53.242;10.438;2022-07-06T01:30:05;4.70;;;2.40;;
18505;SDS011;9382;53.242;10.438;2022-07-06T01:32:32;6.27;;;2.33;;
18505;SDS011;9382;53.242;10.438;2022-07-06T01:34:59;4.50;;;2.23;;
18505;SDS011;9382;53.242;10.438;2022-07-06T01:37:28;6.80;;;2.17;;
18505;SDS011;9382;53.242;10.438;2022-07-06T01:39:57;5.90;;;2.30;;
18505;SDS011;9382;53.242;10.438;2022-07-06T01:42:24;4.30;;;2.10;;
18505;SDS011;9382;53.242;10.438;2022-07-06T01:44:51;4.17;;;2.33;;
18505;SDS011;9382;53.242;10.438;2022-07-06T01:47:17;4.70;;;2.17;;
18505;SDS011;9382;53.242;10.438;2022-07-06T01:49:44;4.20;;;2.10;;
18505;SDS011;9382;53.242;10.438;2022-07-06T01:52:11;6.30;;;2.17;;
18505;SDS011;9382;53.242;10.438;2022-07-06T01:54:39;5.83;;;2.50;;
18505;SDS011;9382;53.242;10.438;2022-07-06T01:57:06;3.77;;;2.30;;
18505;SDS011;9382;53.242;10.438;2022-07-06T01:59:32;6.90;;;2.70;;
18505;SDS011;9382;53.242;10.438;2022-07-06T02:01:59;5.83;;;2.37;;
18505;SDS011;9382;53.242;10.438;2022-07-06T02:04:26;7.33;;;2.27;;
18505;SDS011;9382;53.242;10.438;2022-07-06T02:06:53;4.80;;;2.10;;
18505;SDS011;9382;53.242;10.438;2022-07-06T02:09:19;7.00;;;2.30;;
18505;SDS011;9382;53.242;10.438;2022-07-06T02:11:47;7.20;;;2.23;;
18505;SDS011;9382;53.242;10.438;2022-07-06T02:14:14;6.83;;;2.57;;
18505;SDS011;9382;53.242;10.438;2022-07-06T02:16:41;4.40;;;2.10;;
18505;SDS011;9382;53.242;10.438;2022-07-06T02:19:07;3.93;;;2.10;;
18505;SDS011;9382;53.242;10.438;2022-07-06T02:21:34;4.80;;;2.20;;
18505;SDS011;9382;53.242;10.438;2022-07-06T02:24:01;4.10;;;2.10;;
18505;SDS011;9382;53.242;10.438;2022-07-06T02:26:27;6.17;;;2.30;;
18505;SDS011;9382;53.242;10.438;2022-07-06T02:28:55;6.57;;;2.50;;
18505;SDS011;9382;53.242;10.438;2022-07-06T02:31:22;3.87;;;2.20;;
18505;SDS011;9382;53.242;10.438;2022-07-06T02:33:49;3.93;;;2.30;;
18505;SDS011;9382;53.242;10.438;2022-07-06T02:36:15;5.60;;;2.27;;
18505;SDS011;9382;53.242;10.438;2022-07-06T02:38:42;8.13;;;2.40;;
18505;SDS011;9382;53.242;10.438;2022-07-06T02:41:09;4.83;;;2.43;;
18505;SDS011;9382;53.242;10.438;2022-07-06T02:43:36;5.50;;;2.57;;
18505;SDS011;9382;53.242;10.438;2022-07-06T02:46:04;10.03;;;2.70;;
18505;SDS011;9382;53.242;10.438;2022-07-06T02:48:31;5.63;;;2.17;;
18505;SDS011;9382;53.242;10.438;2022-07-06T02:50:57;4.23;;;2.40;;
18505;SDS011;9382;53.242;10.438;2022-07-06T02:53:24;6.97;;;2.47;;
18505;SDS011;9382;53.242;10.438;2022-07-06T02:55:51;5.37;;;2.33;;
18505;SDS011;9382;53.242;10.438;2022-07-06T02:58:18;5.70;;;2.50;;
18505;SDS011;9382;53.242;10.438;2022-07-06T03:00:44;4.30;;;2.20;;
18505;SDS011;9382;53.242;10.438;2022-07-06T03:03:12;4.30;;;2.40;;
18505;SDS011;9382;53.242;10.438;2022-07-06T03:05:39;3.33;;;2.10;;
18505;SDS011;9382;53.242;10.438;2022-07-06T03:08:06;3.10;;;2.20;;
18505;SDS011;9382;53.242;10.438;2022-07-06T03:10:32;7.33;;;2.20;;
18505;SDS011;9382;53.242;10.438;2022-07-06T03:12:59;6.57;;;2.20;;
18505;SDS011;9382;53.242;10.438;2022-07-06T03:15:26;4.93;;;2.40;;
18505;SDS011;9382;53.242;10.438;2022-07-06T03:17:52;4.63;;;2.30;;
18505;SDS011;9382;53.242;10.438;2022-07-06T03:20:20;5.07;;;2.03;;
18505;SDS011;9382;53.242;10.438;2022-07-06T03:22:47;5.00;;;2.50;;
18505;SDS011;9382;53.242;10.438;2022-07-06T03:25:14;6.47;;;2.50;;
18505;SDS011;9382;53.242;10.438;2022-07-06T03:27:40;6.63;;;2.47;;
18505;SDS011;9382;53.242;10.438;2022-07-06T03:30:07;3.40;;;2.00;;
18505;SDS011;9382;53.242;10.438;2022-07-06T03:32:34;7.20;;;2.40;;
18505;SDS011;9382;53.242;10.438;2022-07-06T03:35:01;4.83;;;2.00;;
18505;SDS011;9382;53.242;10.438;2022-07-06T03:37:29;9.10;;;2.27;;
18505;SDS011;9382;53.242;10.438;2022-07-06T03:39:56;6.17;;;2.10;;
18505;SDS011;9382;53.242;10.438;2022-07-06T03:42:23;7.17;;;2.33;;
18505;SDS011;9382;53.242;10.438;2022-07-06T03:44:49;7.37;;;2.53;;
18505;SDS011;9382;53.242;10.438;2022-07-06T03:47:16;3.93;;;2.20;;
18505;SDS011;9382;53.242;10.438;2022-07-06T03:49:43;4.33;;;2.10;;
18505;SDS011;9382;53.242;10.438;2022-07-06T03:52:09;6.13;;;2.40;;
18505;SDS011;9382;53.242;10.438;2022-07-06T03:54:37;3.07;;;2.07;;
18505;SDS011;9382;53.242;10.438;2022-07-06T03:57:04;10.17;;;2.60;;
18505;SDS011;9382;53.242;10.438;2022-07-06T03:59:31;4.60;;;2.17;;
18505;SDS011;9382;53.242;10.438;2022-07-06T04:01:58;6.33;;;2.10;;
18505;SDS011;9382;53.242;10.438;2022-07-06T04:04:24;4.70;;;2.23;;
18505;SDS011;9382;53.242;10.438;2022-07-06T04:06:51;6.10;;;2.30;;
18505;SDS011;9382;53.242;10.438;2022-07-06T04:09:18;4.00;;;1.80;;
18505;SDS011;9382;53.242;10.438;2022-07-06T04:11:46;5.83;;;2.40;;
18505;SDS011;9382;53.242;10.438;2022-07-06T04:14:12;4.90;;;2.20;;
18505;SDS011;9382;53.242;10.438;2022-07-06T04:16:39;3.63;;;2.23;;
18505;SDS011;9382;53.242;10.438;2022-07-06T04:19:06;3.97;;;2.10;;
18505;SDS011;9382;53.242;10.438;2022-07-06T04:21:33;4.50;;;1.90;;
18505;SDS011;9382;53.242;10.438;2022-07-06T04:23:59;4.13;;;2.07;;
18505;SDS011;9382;53.242;10.438;2022-07-06T04:26:26;5.47;;;2.07;;
18505;SDS011;9382;53.242;10.438;2022-07-06T04:28:54;4.30;;;2.20;;
18505;SDS011;9382;53.242;10.438;2022-07-06T04:31:21;5.23;;;2.37;;
18505;SDS011;9382;53.242;10.438;2022-07-06T04:33:48;6.73;;;2.30;;
18505;SDS011;9382;53.242;10.438;2022-07-06T04:36:14;4.50;;;2.00;;
18505;SDS011;9382;53.242;10.438;2022-07-06T04:38:41;4.50;;;2.20;;
18505;SDS011;9382;53.242;10.438;2022-07-06T04:41:08;3.60;;;2.10;;
18505;SDS011;9382;53.242;10.438;2022-07-06T04:43:34;7.83;;;2.00;;
18505;SDS011;9382;53.242;10.438;2022-07-06T04:46:02;6.13;;;2.30;;
18505;SDS011;9382;53.242;10.438;2022-07-06T04:48:30;4.07;;;2.10;;
18505;SDS011;9382;53.242;10.438;2022-07-06T04:51:01;6.67;;;2.10;;
18505;SDS011;9382;53.242;10.438;2022-07-06T04:53:28;2.67;;;1.97;;
18505;SDS011;9382;53.242;10.438;2022-07-06T04:55:54;5.77;;;2.20;;
18505;SDS011;9382;53.242;10.438;2022-07-06T04:58:21;4.53;;;2.20;;
18505;SDS011;9382;53.242;10.438;2022-07-06T05:00:48;6.47;;;2.10;;
18505;SDS011;9382;53.242;10.438;2022-07-06T05:03:16;8.37;;;2.10;;
18505;SDS011;9382;53.242;10.438;2022-07-06T05:05:42;4.87;;;1.90;;
18505;SDS011;9382;53.242;10.438;2022-07-06T05:08:09;6.50;;;2.03;;
18505;SDS011;9382;53.242;10.438;2022-07-06T05:10:35;4.67;;;2.03;;
18505;SDS011;9382;53.242;10.438;2022-07-06T05:13:02;6.13;;;1.73;;
18505;SDS011;9382;53.242;10.438;2022-07-06T05:15:29;4.93;;;1.83;;
18505;SDS011;9382;53.242;10.438;2022-07-06T05:17:55;3.57;;;1.63;;
18505;SDS011;9382;53.242;10.438;2022-07-06T05:20:23;5.40;;;1.90;;
18505;SDS011;9382;53.242;10.438;2022-07-06T05:22:50;5.03;;;1.80;;
18505;SDS011;9382;53.242;10.438;2022-07-06T05:25:17;4.97;;;1.87;;
18505;SDS011;9382;53.242;10.438;2022-07-06T05:27:44;4.10;;;1.70;;
18505;SDS011;9382;53.242;10.438;2022-07-06T05:30:10;5.80;;;2.07;;
18505;SDS011;9382;53.242;10.438;2022-07-06T05:32:37;5.63;;;2.00;;
18505;SDS011;9382;53.242;10.438;2022-07-06T05:35:04;4.10;;;2.00;;
18505;SDS011;9382;53.242;10.438;2022-07-06T05:37:34;5.73;;;1.80;;
18505;SDS011;9382;53.242;10.438;2022-07-06T05:40:00;5.97;;;1.53;;
18505;SDS011;9382;53.242;10.438;2022-07-06T05:42:27;6.03;;;1.80;;
18505;SDS011;9382;53.242;10.438;2022-07-06T05:44:54;3.67;;;1.80;;
18505;SDS011;9382;53.242;10.438;2022-07-06T05:47:21;2.13;;;1.57;;
18505;SDS011;9382;53.242;10.438;2022-07-06T05:50:05;3.70;;;1.80;;
18505;SDS011;9382;53.242;10.438;2022-07-06T05:52:40;3.20;;;1.50;;
18505;SDS011;9382;53.242;10.438;2022-07-06T05:55:08;5.67;;;1.67;;
18505;SDS011;9382;53.242;10.438;2022-07-06T05:57:35;4.47;;;1.60;;
18505;SDS011;9382;53.242;10.438;2022-07-06T06:00:02;1.73;;;1.50;;
18505;SDS011;9382;53.242;10.438;2022-07-06T06:02:35;5.00;;;1.63;;
18505;SDS011;9382;53.242;10.438;2022-07-06T06:05:03;5.47;;;1.77;;
18505;SDS011;9382;53.242;10.438;2022-07-06T06:07:32;4.57;;;1.53;;
18505;SDS011;9382;53.242;10.438;2022-07-06T06:10:01;5.27;;;1.77;;
18505;SDS011;9382;53.242;10.438;2022-07-06T06:12:28;5.17;;;1.70;;
18505;SDS011;9382;53.242;10.438;2022-07-06T06:14:54;4.23;;;1.60;;
18505;SDS011;9382;53.242;10.438;2022-07-06T06:17:21;5.43;;;1.70;;
18505;SDS011;9382;53.242;10.438;2022-07-06T06:19:48;3.70;;;1.67;;
18505;SDS011;9382;53.242;10.438;2022-07-06T06:22:15;5.80;;;1.70;;
18505;SDS011;9382;53.242;10.438;2022-07-06T06:24:41;5.00;;;1.60;;
18505;SDS011;9382;53.242;10.438;2022-07-06T06:27:09;3.90;;;1.70;;
18505;SDS011;9382;53.242;10.438;2022-07-06T06:29:36;4.03;;;1.50;;
18505;SDS011;9382;53.242;10.438;2022-07-06T06:32:03;3.10;;;1.50;;
18505;SDS011;9382;53.242;10.438;2022-07-06T06:34:30;4.37;;;1.57;;
18505;SDS011;9382;53.242;10.438;2022-07-06T06:36:57;6.10;;;1.50;;
18505;SDS011;9382;53.242;10.438;2022-07-06T06:39:24;3.97;;;1.50;;
18505;SDS011;9382;53.242;10.438;2022-07-06T06:41:51;5.87;;;1.70;;
18505;SDS011;9382;53.242;10.438;2022-07-06T06:44:19;3.83;;;1.40;;
18505;SDS011;9382;53.242;10.438;2022-07-06T06:46:48;3.73;;;1.37;;
18505;SDS011;9382;53.242;10.438;2022-07-06T06:49:15;2.40;;;1.50;;
18505;SDS011;9382;53.242;10.438;2022-07-06T06:51:41;4.50;;;1.30;;
18505;SDS011;9382;53.242;10.438;2022-07-06T06:54:08;7.93;;;1.70;;
18505;SDS011;9382;53.242;10.438;2022-07-06T06:56:34;4.53;;;1.40;;
18505;SDS011;9382;53.242;10.438;2022-07-06T06:59:01;5.20;;;1.30;;
18505;SDS011;9382;53.242;10.438;2022-07-06T07:01:30;1.77;;;1.10;;
18505;SDS011;9382;53.242;10.438;2022-07-06T07:03:57;5.00;;;1.43;;
18505;SDS011;9382;53.242;10.438;2022-07-06T07:06:24;3.73;;;1.20;;
18505;SDS011;9382;53.242;10.438;2022-07-06T07:08:51;5.23;;;1.60;;
18505;SDS011;9382;53.242;10.438;2022-07-06T07:11:17;3.33;;;1.20;;
18505;SDS011;9382;53.242;10.438;2022-07-06T07:13:44;3.40;;;1.20;;
18505;SDS011;9382;53.242;10.438;2022-07-06T07:16:11;4.90;;;1.40;;
18505;SDS011;9382;53.242;10.438;2022-07-06T07:18:39;4.27;;;1.40;;
18505;SDS011;9382;53.242;10.438;2022-07-06T07:21:05;2.37;;;1.20;;
18505;SDS011;9382;53.242;10.438;2022-07-06T07:23:32;2.37;;;1.17;;
18505;SDS011;9382;53.242;10.438;2022-07-06T07:25:59;3.23;;;1.10;;
18505;SDS011;9382;53.242;10.438;2022-07-06T07:28:25;1.37;;;1.13;;
18505;SDS011;9382;53.242;10.438;2022-07-06T07:30:52;4.53;;;0.97;;
18505;SDS011;9382;53.242;10.438;2022-07-06T07:33:19;2.30;;;1.10;;
18505;SDS011;9382;53.242;10.438;2022-07-06T07:35:47;7.37;;;1.50;;
18505;SDS011;9382;53.242;10.438;2022-07-06T07:38:14;3.37;;;1.30;;
18505;SDS011;9382;53.242;10.438;2022-07-06T07:40:40;3.47;;;1.40;;
18505;SDS011;9382;53.242;10.438;2022-07-06T07:43:07;3.13;;;1.10;;
18505;SDS011;9382;53.242;10.438;2022-07-06T07:45:34;3.67;;;1.20;;
18505;SDS011;9382;53.242;10.438;2022-07-06T07:48:00;4.87;;;1.30;;
18505;SDS011;9382;53.242;10.438;2022-07-06T07:50:27;3.50;;;0.97;;
18505;SDS011;9382;53.242;10.438;2022-07-06T07:52:55;1.73;;;1.00;;
18505;SDS011;9382;53.242;10.438;2022-07-06T07:55:22;2.20;;;1.10;;
18505;SDS011;9382;53.242;10.438;2022-07-06T07:57:49;3.47;;;1.20;;
18505;SDS011;9382;53.242;10.438;2022-07-06T08:00:15;2.93;;;1.03;;
18505;SDS011;9382;53.242;10.438;2022-07-06T08:02:42;3.97;;;1.30;;
18505;SDS011;9382;53.242;10.438;2022-07-06T08:05:09;3.30;;;1.37;;
18505;SDS011;9382;53.242;10.438;2022-07-06T08:07:38;4.17;;;1.23;;
18505;SDS011;9382;53.242;10.438;2022-07-06T08:10:07;4.93;;;1.50;;
18505;SDS011;9382;53.242;10.438;2022-07-06T08:12:35;3.10;;;1.10;;
18505;SDS011;9382;53.242;10.438;2022-07-06T08:15:02;2.17;;;1.20;;
18505;SDS011;9382;53.242;10.438;2022-07-06T08:17:29;4.23;;;1.10;;
18505;SDS011;9382;53.242;10.438;2022-07-06T08:19:55;2.30;;;0.97;;
18505;SDS011;9382;53.242;10.438;2022-07-06T08:22:23;6.07;;;1.30;;
18505;SDS011;9382;53.242;10.438;2022-07-06T08:24:50;1.60;;;1.00;;
18505;SDS011;9382;53.242;10.438;2022-07-06T08:27:18;3.17;;;1.13;;
18505;SDS011;9382;53.242;10.438;2022-07-06T08:29:45;5.40;;;1.73;;
18505;SDS011;9382;53.242;10.438;2022-07-06T08:32:11;2.67;;;1.07;;
18505;SDS011;9382;53.242;10.438;2022-07-06T08:34:38;1.90;;;1.10;;
18505;SDS011;9382;53.242;10.438;2022-07-06T08:37:05;4.10;;;1.30;;
18505;SDS011;9382;53.242;10.438;2022-07-06T08:39:31;1.57;;;1.20;;
18505;SDS011;9382;53.242;10.438;2022-07-06T08:41:58;2.13;;;0.90;;
18505;SDS011;9382;53.242;10.438;2022-07-06T08:44:28;2.33;;;1.23;;
18505;SDS011;9382;53.242;10.438;2022-07-06T08:46:55;4.03;;;1.27;;
18505;SDS011;9382;53.242;10.438;2022-07-06T08:49:24;4.10;;;1.33;;
18505;SDS011;9382;53.242;10.438;2022-07-06T08:51:52;6.20;;;1.30;;
18505;SDS011;9382;53.242;10.438;2022-07-06T08:54:19;2.43;;;1.20;;
18505;SDS011;9382;53.242;10.438;2022-07-06T08:56:48;4.67;;;1.23;;
18505;SDS011;9382;53.242;10.438;2022-07-06T08:59:15;3.40;;;1.30;;
18505;SDS011;9382;53.242;10.438;2022-07-06T09:01:43;2.53;;;1.20;;
18505;SDS011;9382;53.242;10.438;2022-07-06T09:04:11;1.50;;;0.97;;
18505;SDS011;9382;53.242;10.438;2022-07-06T09:06:38;3.33;;;1.13;;
18505;SDS011;9382;53.242;10.438;2022-07-06T09:09:08;4.20;;;1.10;;
18505;SDS011;9382;53.242;10.438;2022-07-06T09:11:36;2.10;;;1.17;;
18505;SDS011;9382;53.242;10.438;2022-07-06T09:14:03;3.23;;;1.10;;
18505;SDS011;9382;53.242;10.438;2022-07-06T09:16:30;3.60;;;1.40;;
18505;SDS011;9382;53.242;10.438;2022-07-06T09:18:58;2.23;;;1.10;;
18505;SDS011;9382;53.242;10.438;2022-07-06T09:21:26;4.77;;;1.40;;
18505;SDS011;9382;53.242;10.438;2022-07-06T09:23:56;2.13;;;1.20;;
18505;SDS011;9382;53.242;10.438;2022-07-06T09:26:23;2.20;;;1.20;;
18505;SDS011;9382;53.242;10.438;2022-07-06T09:28:51;5.20;;;1.10;;
18505;SDS011;9382;53.242;10.438;2022-07-06T09:31:20;6.43;;;1.30;;
18505;SDS011;9382;53.242;10.438;2022-07-06T09:33:54;1.90;;;0.90;;
18505;SDS011;9382;53.242;10.438;2022-07-06T09:36:39;2.63;;;1.30;;
18505;SDS011;9382;53.242;10.438;2022-07-06T09:39:19;3.93;;;1.07;;
18505;SDS011;9382;53.242;10.438;2022-07-06T09:41:48;2.77;;;1.00;;
18505;SDS011;9382;53.242;10.438;2022-07-06T09:44:22;1.07;;;0.90;;
18505;SDS011;9382;53.242;10.438;2022-07-06T09:46:50;1.10;;;0.80;;
18505;SDS011;9382;53.242;10.438;2022-07-06T09:49:18;0.90;;;0.90;;
18505;SDS011;9382;53.242;10.438;2022-07-06T09:51:47;4.50;;;0.90;;
18505;SDS011;9382;53.242;10.438;2022-07-06T09:54:16;1.13;;;0.87;;
18505;SDS011;9382;53.242;10.438;2022-07-06T09:56:43;1.67;;;1.00;;
18505;SDS011;9382;53.242;10.438;2022-07-06T09:59:13;1.83;;;0.80;;
18505;SDS011;9382;53.242;10.438;2022-07-06T10:01:41;1.23;;;0.80;;
18505;SDS011;9382;53.242;10.438;2022-07-06T10:04:08;0.93;;;0.83;;
18505;SDS011;9382;53.242;10.438;2022-07-06T10:06:37;3.10;;;0.80;;
18505;SDS011;9382;53.242;10.438;2022-07-06T10:09:06;0.93;;;0.80;;
18505;SDS011;9382;53.242;10.438;2022-07-06T10:11:36;1.07;;;0.87;;
18505;SDS011;9382;53.242;10.438;2022-07-06T10:14:04;1.07;;;0.90;;
18505;SDS011;9382;53.242;10.438;2022-07-06T10:16:33;3.40;;;1.10;;
18505;SDS011;9382;53.242;10.438;2022-07-06T10:19:03;1.80;;;0.83;;
18505;SDS011;9382;53.242;10.438;2022-07-06T10:21:31;1.20;;;0.80;;
18505;SDS011;9382;53.242;10.438;2022-07-06T10:23:59;1.90;;;0.80;;
18505;SDS011;9382;53.242;10.438;2022-07-06T10:26:29;1.50;;;0.90;;
18505;SDS011;9382;53.242;10.438;2022-07-06T10:28:57;2.10;;;0.80;;
18505;SDS011;9382;53.242;10.438;2022-07-06T10:31:24;0.90;;;0.80;;
18505;SDS011;9382;53.242;10.438;2022-07-06T10:33:53;3.80;;;0.80;;
18505;SDS011;9382;53.242;10.438;2022-07-06T10:36:21;1.30;;;0.73;;
18505;SDS011;9382;53.242;10.438;2022-07-06T10:38:50;5.03;;;1.27;;
18505;SDS011;9382;53.242;10.438;2022-07-06T10:41:17;0.93;;;0.80;;
18505;SDS011;9382;53.242;10.438;2022-07-06T10:43:46;1.40;;;0.83;;
18505;SDS011;9382;53.242;10.438;2022-07-06T10:46:14;1.73;;;0.90;;
18505;SDS011;9382;53.242;10.438;2022-07-06T10:48:42;2.93;;;0.90;;
18505;SDS011;9382;53.242;10.438;2022-07-06T10:51:10;2.33;;;1.00;;
18505;SDS011;9382;53.242;10.438;2022-07-06T10:53:38;1.77;;;0.90;;
18505;SDS011;9382;53.242;10.438;2022-07-06T10:56:06;4.00;;;1.00;;
18505;SDS011;9382;53.242;10.438;2022-07-06T10:58:35;3.30;;;1.03;;
18505;SDS011;9382;53.242;10.438;2022-07-06T11:01:06;1.83;;;1.03;;
18505;SDS011;9382;53.242;10.438;2022-07-06T11:03:34;2.63;;;0.90;;
18505;SDS011;9382;53.242;10.438;2022-07-06T11:06:04;2.87;;;0.90;;
18505;SDS011;9382;53.242;10.438;2022-07-06T11:08:49;2.03;;;0.80;;
18505;SDS011;9382;53.242;10.438;2022-07-06T11:11:21;3.10;;;0.77;;
18505;SDS011;9382;53.242;10.438;2022-07-06T11:14:00;2.40;;;0.90;;
18505;SDS011;9382;53.242;10.438;2022-07-06T11:16:29;1.70;;;0.97;;
18505;SDS011;9382;53.242;10.438;2022-07-06T11:19:08;4.80;;;2.50;;
18505;SDS011;9382;53.242;10.438;2022-07-06T11:21:37;4.00;;;0.70;;
18505;SDS011;9382;53.242;10.438;2022-07-06T11:24:05;2.40;;;1.00;;
18505;SDS011;9382;53.242;10.438;2022-07-06T11:26:33;1.10;;;0.73;;
18505;SDS011;9382;53.242;10.438;2022-07-06T11:29:02;2.03;;;0.80;;
18505;SDS011;9382;53.242;10.438;2022-07-06T11:31:31;0.70;;;0.70;;
18505;SDS011;9382;53.242;10.438;2022-07-06T11:34:03;2.67;;;0.87;;
18505;SDS011;9382;53.242;10.438;2022-07-06T11:36:30;0.80;;;0.70;;
18505;SDS011;9382;53.242;10.438;2022-07-06T11:38:57;2.10;;;0.90;;
18505;SDS011;9382;53.242;10.438;2022-07-06T11:41:24;3.00;;;0.90;;
18505;SDS011;9382;53.242;10.438;2022-07-06T11:43:51;2.50;;;0.80;;
18505;SDS011;9382;53.242;10.438;2022-07-06T11:46:22;0.70;;;0.70;;
18505;SDS011;9382;53.242;10.438;2022-07-06T11:48:52;2.07;;;0.80;;
18505;SDS011;9382;53.242;10.438;2022-07-06T11:51:20;2.47;;;0.80;;
18505;SDS011;9382;53.242;10.438;2022-07-06T11:53:49;1.33;;;0.60;;
18505;SDS011;9382;53.242;10.438;2022-07-06T11:56:16;3.07;;;1.10;;
18505;SDS011;9382;53.242;10.438;2022-07-06T11:58:46;4.43;;;1.00;;
18505;SDS011;9382;53.242;10.438;2022-07-06T12:01:15;1.50;;;0.63;;
18505;SDS011;9382;53.242;10.438;2022-07-06T12:03:42;2.70;;;0.80;;
18505;SDS011;9382;53.242;10.438;2022-07-06T12:06:14;4.77;;;1.03;;
18505;SDS011;9382;53.242;10.438;2022-07-06T12:08:43;3.70;;;0.97;;
18505;SDS011;9382;53.242;10.438;2022-07-06T12:11:16;1.40;;;0.97;;
18505;SDS011;9382;53.242;10.438;2022-07-06T12:13:47;1.90;;;0.77;;
18505;SDS011;9382;53.242;10.438;2022-07-06T12:16:14;1.73;;;0.93;;
18505;SDS011;9382;53.242;10.438;2022-07-06T12:18:42;3.27;;;0.97;;
18505;SDS011;9382;53.242;10.438;2022-07-06T12:21:10;1.20;;;1.10;;
18505;SDS011;9382;53.242;10.438;2022-07-06T12:23:41;1.40;;;0.90;;
18505;SDS011;9382;53.242;10.438;2022-07-06T12:26:09;2.20;;;0.90;;
18505;SDS011;9382;53.242;10.438;2022-07-06T12:28:36;1.50;;;0.90;;
18505;SDS011;9382;53.242;10.438;2022-07-06T12:31:03;1.87;;;1.00;;
18505;SDS011;9382;53.242;10.438;2022-07-06T12:33:30;3.17;;;0.90;;
18505;SDS011;9382;53.242;10.438;2022-07-06T12:35:57;1.17;;;1.00;;
18505;SDS011;9382;53.242;10.438;2022-07-06T12:38:36;1.67;;;0.90;;
18505;SDS011;9382;53.242;10.438;2022-07-06T12:44:02;1.27;;;0.80;;
18505;SDS011;9382;53.242;10.438;2022-07-06T12:46:32;2.60;;;0.90;;
18505;SDS011;9382;53.242;10.438;2022-07-06T12:49:01;2.27;;;0.80;;
18505;SDS011;9382;53.242;10.438;2022-07-06T12:54:23;4.67;;;0.80;;
18505;SDS011;9382;53.242;10.438;2022-07-06T12:56:57;1.80;;;0.70;;
18505;SDS011;9382;53.242;10.438;2022-07-06T12:59:26;2.10;;;0.70;;
18505;SDS011;9382;53.242;10.438;2022-07-06T13:01:53;1.40;;;0.87;;
18505;SDS011;9382;53.242;10.438;2022-07-06T13:04:21;2.77;;;1.03;;
18505;SDS011;9382;53.242;10.438;2022-07-06T13:06:49;1.37;;;0.80;;
18505;SDS011;9382;53.242;10.438;2022-07-06T13:09:15;1.70;;;0.63;;
18505;SDS011;9382;53.242;10.438;2022-07-06T13:11:45;3.07;;;0.70;;
18505;SDS011;9382;53.242;10.438;2022-07-06T13:14:12;2.77;;;0.80;;
18505;SDS011;9382;53.242;10.438;2022-07-06T13:16:39;2.57;;;0.70;;
18505;SDS011;9382;53.242;10.438;2022-07-06T13:19:06;3.60;;;0.93;;
18505;SDS011;9382;53.242;10.438;2022-07-06T13:21:34;2.10;;;0.73;;
18505;SDS011;9382;53.242;10.438;2022-07-06T13:24:00;3.10;;;0.80;;
18505;SDS011;9382;53.242;10.438;2022-07-06T13:26:28;1.77;;;0.70;;
18505;SDS011;9382;53.242;10.438;2022-07-06T13:28:59;1.83;;;0.70;;
18505;SDS011;9382;53.242;10.438;2022-07-06T13:31:26;0.67;;;0.67;;
18505;SDS011;9382;53.242;10.438;2022-07-06T13:33:53;2.13;;;0.87;;
18505;SDS011;9382;53.242;10.438;2022-07-06T13:36:20;1.13;;;0.60;;
18505;SDS011;9382;53.242;10.438;2022-07-06T13:38:46;2.53;;;0.93;;
18505;SDS011;9382;53.242;10.438;2022-07-06T13:41:13;2.57;;;0.83;;
18505;SDS011;9382;53.242;10.438;2022-07-06T13:43:40;2.70;;;0.73;;
18505;SDS011;9382;53.242;10.438;2022-07-06T13:46:08;3.30;;;0.80;;
18505;SDS011;9382;53.242;10.438;2022-07-06T13:48:35;3.40;;;0.80;;
18505;SDS011;9382;53.242;10.438;2022-07-06T13:51:02;1.80;;;0.80;;
18505;SDS011;9382;53.242;10.438;2022-07-06T13:53:29;0.77;;;0.60;;
18505;SDS011;9382;53.242;10.438;2022-07-06T13:55:56;0.80;;;0.70;;
18505;SDS011;9382;53.242;10.438;2022-07-06T13:58:23;2.67;;;0.70;;
18505;SDS011;9382;53.242;10.438;2022-07-06T14:00:49;4.50;;;1.10;;
18505;SDS011;9382;53.242;10.438;2022-07-06T14:03:17;1.43;;;0.70;;
18505;SDS011;9382;53.242;10.438;2022-07-06T14:05:44;2.13;;;0.70;;
18505;SDS011;9382;53.242;10.438;2022-07-06T14:08:11;4.10;;;0.80;;
18505;SDS011;9382;53.242;10.438;2022-07-06T14:10:37;1.60;;;1.07;;
18505;SDS011;9382;53.242;10.438;2022-07-06T14:13:04;2.20;;;0.63;;
18505;SDS011;9382;53.242;10.438;2022-07-06T14:15:31;2.37;;;0.80;;
18505;SDS011;9382;53.242;10.438;2022-07-06T14:17:59;0.57;;;0.53;;
18505;SDS011;9382;53.242;10.438;2022-07-06T14:20:26;1.90;;;0.90;;
18505;SDS011;9382;53.242;10.438;2022-07-06T14:22:53;3.50;;;0.80;;
18505;SDS011;9382;53.242;10.438;2022-07-06T14:25:20;0.50;;;0.50;;
18505;SDS011;9382;53.242;10.438;2022-07-06T14:27:47;1.60;;;0.70;;
18505;SDS011;9382;53.242;10.438;2022-07-06T14:30:13;2.37;;;0.60;;
18505;SDS011;9382;53.242;10.438;2022-07-06T14:32:40;1.43;;;0.83;;
18505;SDS011;9382;53.242;10.438;2022-07-06T14:35:08;1.33;;;0.60;;
18505;SDS011;9382;53.242;10.438;2022-07-06T14:37:37;2.40;;;0.93;;
18505;SDS011;9382;53.242;10.438;2022-07-06T14:40:03;0.73;;;0.63;;
18505;SDS011;9382;53.242;10.438;2022-07-06T14:42:31;1.50;;;0.70;;
18505;SDS011;9382;53.242;10.438;2022-07-06T14:44:57;1.03;;;0.70;;
18505;SDS011;9382;53.242;10.438;2022-07-06T14:47:24;2.50;;;0.80;;
18505;SDS011;9382;53.242;10.438;2022-07-06T14:49:51;1.73;;;0.70;;
18505;SDS011;9382;53.242;10.438;2022-07-06T14:52:18;2.40;;;0.90;;
18505;SDS011;9382;53.242;10.438;2022-07-06T14:54:46;1.80;;;0.60;;
18505;SDS011;9382;53.242;10.438;2022-07-06T14:57:13;1.53;;;0.60;;